createdAt,value
2018-06-19T00:00:47.578Z,99989.00
2018-06-19T00:02:52.335Z,99991.00
2018-06-19T00:04:56.941Z,100000.00
2018-06-19T00:07:01.420Z,99995.00
2018-06-19T00:09:08.706Z,99993.00
2018-06-19T00:11:13.266Z,99996.00
2018-06-19T00:13:17.487Z,99990.00
2018-06-19T00:15:21.959Z,99996.00
2018-06-19T00:17:27.408Z,99996.00
2018-06-19T00:19:33.377Z,99989.00
2018-06-19T00:21:48.699Z,99988.00
2018-06-19T00:23:53.106Z,99979.00
2018-06-19T00:25:57.562Z,99982.00
2018-06-19T00:28:02.048Z,99982.00
2018-06-19T00:30:07.195Z,99991.00
2018-06-19T00:32:12.465Z,99989.00
2018-06-19T00:34:16.940Z,99986.00
2018-06-19T00:36:21.343Z,99993.00
2018-06-19T00:38:25.818Z,99990.00
2018-06-19T00:40:30.391Z,99984.00
2018-06-19T00:42:34.823Z,99994.00
2018-06-19T00:44:39.318Z,99989.00
2018-06-19T00:46:48.623Z,99984.00
2018-06-19T00:48:53.039Z,99986.00
2018-06-19T00:50:57.684Z,99981.00
2018-06-19T00:53:02.110Z,99991.00
2018-06-19T00:55:06.621Z,99988.00
2018-06-19T00:57:11.896Z,99977.00
2018-06-19T00:59:16.343Z,99979.00
2018-06-19T01:01:21.159Z,99976.00
2018-06-19T01:03:25.737Z,99987.00
2018-06-19T01:05:31.240Z,99995.00
2018-06-19T01:07:35.768Z,100001.00
2018-06-19T01:09:41.060Z,100002.00
2018-06-19T01:11:45.554Z,100004.00
2018-06-19T01:13:50.106Z,99996.00
2018-06-19T01:15:54.615Z,99999.00
2018-06-19T01:17:59.086Z,100000.00
2018-06-19T01:20:05.821Z,100001.00
2018-06-19T01:22:10.379Z,100001.00
2018-06-19T01:24:14.872Z,100003.00
2018-06-19T01:26:20.546Z,100003.00
2018-06-19T01:28:27.193Z,99993.00
2018-06-19T01:30:36.756Z,99998.00
2018-06-19T01:32:43.522Z,100007.00
2018-06-19T01:34:49.992Z,99994.00
2018-06-19T01:36:58.403Z,99992.00
2018-06-19T01:39:04.813Z,100002.00
2018-06-19T01:41:11.998Z,99991.00
2018-06-19T01:43:18.748Z,99993.00
2018-06-19T01:45:25.335Z,100001.00
2018-06-19T01:47:33.318Z,99998.00
2018-06-19T01:49:40.527Z,99997.00
2018-06-19T01:51:48.732Z,99997.00
2018-06-19T01:53:56.025Z,100002.00
2018-06-19T01:56:03.732Z,99999.00
2018-06-19T01:58:08.212Z,99983.00
2018-06-19T02:00:13.256Z,99987.00
2018-06-19T02:02:19.195Z,99994.00
2018-06-19T02:04:25.783Z,100001.00
2018-06-19T02:06:31.823Z,99990.00
2018-06-19T02:08:40.188Z,99988.00
2018-06-19T02:10:46.034Z,100000.00
2018-06-19T02:12:51.492Z,99992.00
2018-06-19T02:14:59.008Z,99994.00
2018-06-19T02:17:06.710Z,99998.00
2018-06-19T02:19:11.111Z,99994.00
2018-06-19T02:21:15.570Z,99987.00
2018-06-19T02:23:20.052Z,99998.00
2018-06-19T02:25:24.422Z,99990.00
2018-06-19T02:27:28.820Z,99997.00
2018-06-19T02:29:33.439Z,100004.00
2018-06-19T02:31:37.824Z,100009.00
2018-06-19T02:33:42.274Z,100002.00
2018-06-19T02:35:46.748Z,99992.00
2018-06-19T02:37:51.250Z,100006.00
2018-06-19T02:39:55.712Z,100003.00
2018-06-19T02:42:00.122Z,100004.00
2018-06-19T02:44:05.420Z,100012.00
2018-06-19T02:46:09.848Z,100006.00
2018-06-19T02:48:14.250Z,100004.00
2018-06-19T02:50:18.635Z,100011.00
2018-06-19T02:52:23.103Z,100013.00
2018-06-19T02:54:27.486Z,100011.00
2018-06-19T02:56:31.944Z,100010.00
2018-06-19T02:58:36.321Z,100015.00
2018-06-19T03:00:40.759Z,100018.00
2018-06-19T03:02:45.327Z,100016.00
2018-06-19T03:04:50.073Z,100020.00
2018-06-19T03:06:54.479Z,100027.00
2018-06-19T03:08:58.903Z,100033.00
2018-06-19T03:11:03.306Z,100019.00
2018-06-19T03:13:07.739Z,100018.00
2018-06-19T03:15:12.110Z,100024.00
2018-06-19T03:17:16.582Z,100030.00
2018-06-19T03:19:20.998Z,100031.00
2018-06-19T03:21:25.466Z,100028.00
2018-06-19T03:23:29.563Z,100030.00
2018-06-19T03:25:33.979Z,100034.00
2018-06-19T03:27:38.394Z,100040.00
2018-06-19T03:29:42.778Z,100043.00
2018-06-19T03:31:47.209Z,100037.00
2018-06-19T03:33:51.879Z,100030.00
2018-06-19T03:35:56.326Z,100037.00
2018-06-19T03:38:00.841Z,100032.00
2018-06-19T03:40:05.298Z,100026.00
2018-06-19T03:42:09.747Z,100018.00
2018-06-19T03:44:14.408Z,100029.00
2018-06-19T03:46:18.822Z,100038.00
2018-06-19T03:48:23.276Z,100043.00
2018-06-19T03:50:27.698Z,100040.00
2018-06-19T03:52:32.142Z,100039.00
2018-06-19T03:54:36.510Z,100031.00
2018-06-19T03:56:40.926Z,100038.00
2018-06-19T03:58:45.385Z,100030.00
2018-06-19T04:00:49.824Z,100034.00
2018-06-19T04:02:54.812Z,100030.00
2018-06-19T04:05:00.001Z,100026.00
2018-06-19T04:07:06.914Z,100040.00
2018-06-19T04:09:14.128Z,100039.00
2018-06-19T04:11:21.248Z,100048.00
2018-06-19T04:13:27.009Z,100045.00
2018-06-19T04:15:31.906Z,100047.00
2018-06-19T04:17:37.046Z,100052.00
2018-06-19T04:19:42.217Z,100056.00
2018-06-19T04:21:48.235Z,100052.00
2018-06-19T04:23:53.022Z,100059.00
2018-06-19T04:25:59.097Z,100060.00
2018-06-19T04:28:04.523Z,100067.00
2018-06-19T04:30:09.311Z,100067.00
2018-06-19T04:32:13.859Z,100070.00
2018-06-19T04:34:18.311Z,100066.00
2018-06-19T04:36:22.679Z,100068.00
2018-06-19T04:38:27.074Z,100069.00
2018-06-19T04:40:31.462Z,100061.00
2018-06-19T04:42:35.542Z,100069.00
2018-06-19T04:44:39.966Z,100065.00
2018-06-19T04:46:44.412Z,100060.00
2018-06-19T04:48:49.329Z,100081.00
2018-06-19T04:50:55.007Z,100078.00
2018-06-19T04:52:59.435Z,100070.00
2018-06-19T04:55:03.798Z,100069.00
2018-06-19T04:57:08.198Z,100079.00
2018-06-19T04:59:12.591Z,100070.00
2018-06-19T05:01:17.781Z,100070.00
2018-06-19T05:03:22.235Z,100069.00
2018-06-19T05:05:26.619Z,100082.00
2018-06-19T05:07:31.029Z,100096.00
2018-06-19T05:09:35.590Z,100087.00
2018-06-19T05:11:39.973Z,100082.00
2018-06-19T05:13:44.390Z,100086.00
2018-06-19T05:15:48.778Z,100086.00
2018-06-19T05:17:53.179Z,100090.00
2018-06-19T05:19:58.310Z,100088.00
2018-06-19T05:22:02.771Z,100078.00
2018-06-19T05:24:07.201Z,100075.00
2018-06-19T05:26:11.336Z,100070.00
2018-06-19T05:28:15.761Z,100078.00
2018-06-19T05:30:20.206Z,100084.00
2018-06-19T05:32:24.621Z,100078.00
2018-06-19T05:34:29.334Z,100078.00
2018-06-19T05:36:33.734Z,100084.00
2018-06-19T05:38:38.864Z,100083.00
2018-06-19T05:40:43.376Z,100085.00
2018-06-19T05:42:47.891Z,100083.00
2018-06-19T05:44:52.282Z,100081.00
2018-06-19T05:46:56.764Z,100087.00
2018-06-19T05:49:01.171Z,100089.00
2018-06-19T05:51:05.808Z,100090.00
2018-06-19T05:53:10.230Z,100087.00
2018-06-19T05:55:15.510Z,100078.00
2018-06-19T05:57:19.976Z,100087.00
2018-06-19T05:59:24.388Z,100088.00
2018-06-19T06:01:28.910Z,100094.00
2018-06-19T06:03:33.339Z,100097.00
2018-06-19T06:05:37.848Z,100103.00
2018-06-19T06:07:42.186Z,100101.00
2018-06-19T06:09:46.603Z,100096.00
2018-06-19T06:11:51.064Z,100111.00
2018-06-19T06:13:55.499Z,100106.00
2018-06-19T06:15:59.907Z,100096.00
2018-06-19T06:18:04.841Z,100111.00
2018-06-19T06:20:09.398Z,100104.00
2018-06-19T06:22:14.197Z,100110.00
2018-06-19T06:24:19.324Z,100120.00
2018-06-19T06:26:23.724Z,100110.00
2018-06-19T06:28:28.144Z,100120.00
2018-06-19T06:30:32.583Z,100125.00
2018-06-19T06:32:36.716Z,100117.00
2018-06-19T06:34:40.833Z,100124.00
2018-06-19T06:36:45.287Z,100124.00
2018-06-19T06:38:49.711Z,100137.00
2018-06-19T06:40:54.122Z,100140.00
2018-06-19T06:42:58.563Z,100142.00
2018-06-19T06:45:02.968Z,100136.00
2018-06-19T06:47:07.968Z,100143.00
2018-06-19T06:49:12.387Z,100150.00
2018-06-19T06:51:16.804Z,100147.00
2018-06-19T06:53:21.338Z,100146.00
2018-06-19T06:55:29.479Z,100141.00
2018-06-19T06:57:33.966Z,100135.00
2018-06-19T06:59:38.414Z,100144.00
2018-06-19T07:01:42.885Z,100139.00
2018-06-19T07:03:47.386Z,100148.00
2018-06-19T07:05:52.500Z,100143.00
2018-06-19T07:07:56.707Z,100147.00
2018-06-19T07:10:01.172Z,100137.00
2018-06-19T07:12:06.471Z,100146.00
2018-06-19T07:14:10.965Z,100150.00
2018-06-19T07:16:15.415Z,100148.00
2018-06-19T07:18:19.834Z,100141.00
2018-06-19T07:20:24.259Z,100138.00
2018-06-19T07:22:28.776Z,100145.00
2018-06-19T07:24:33.222Z,100148.00
2018-06-19T07:26:37.967Z,100147.00
2018-06-19T07:28:42.440Z,100150.00
2018-06-19T07:30:46.892Z,100146.00
2018-06-19T07:32:52.430Z,100149.00
2018-06-19T07:34:56.898Z,100163.00
2018-06-19T07:37:01.284Z,100162.00
2018-06-19T07:39:09.607Z,100156.00
2018-06-19T07:41:14.016Z,100153.00
2018-06-19T07:43:18.522Z,100162.00
2018-06-19T07:45:22.951Z,100154.00
2018-06-19T07:47:27.373Z,100158.00
2018-06-19T07:49:32.906Z,100162.00
2018-06-19T07:51:37.342Z,100170.00
2018-06-19T07:53:41.871Z,100159.00
2018-06-19T07:55:46.314Z,100157.00
2018-06-19T07:57:50.754Z,100161.00
2018-06-19T07:59:55.259Z,100165.00
2018-06-19T08:01:59.693Z,100167.00
2018-06-19T08:04:04.148Z,100173.00
2018-06-19T08:06:08.571Z,100174.00
2018-06-19T08:08:12.959Z,100178.00
2018-06-19T08:10:17.418Z,100187.00
2018-06-19T08:12:21.846Z,100185.00
2018-06-19T08:14:26.358Z,100185.00
2018-06-19T08:16:31.018Z,100186.00
2018-06-19T08:18:35.774Z,100195.00
2018-06-19T08:20:40.327Z,100193.00
2018-06-19T08:22:44.865Z,100195.00
2018-06-19T08:24:49.290Z,100194.00
2018-06-19T08:26:54.125Z,100199.00
2018-06-19T08:28:58.625Z,100196.00
2018-06-19T08:31:03.142Z,100196.00
2018-06-19T08:33:07.807Z,100199.00
2018-06-19T08:35:13.125Z,100202.00
2018-06-19T08:37:17.541Z,100207.00
2018-06-19T08:39:21.968Z,100199.00
2018-06-19T08:41:26.377Z,100193.00
2018-06-19T08:43:30.852Z,100205.00
2018-06-19T08:45:35.297Z,100201.00
2018-06-19T08:47:39.720Z,100204.00
2018-06-19T08:49:44.165Z,100213.00
2018-06-19T08:51:48.569Z,100202.00
2018-06-19T08:53:53.250Z,100212.00
2018-06-19T08:55:57.728Z,100217.00
2018-06-19T08:58:02.133Z,100216.00
2018-06-19T09:00:06.682Z,100214.00
2018-06-19T09:02:11.122Z,100225.00
2018-06-19T09:04:15.601Z,100214.00
2018-06-19T09:06:20.143Z,100222.00
2018-06-19T09:08:24.709Z,100226.00
2018-06-19T09:10:29.227Z,100229.00
2018-06-19T09:12:33.680Z,100222.00
2018-06-19T09:14:38.102Z,100235.00
2018-06-19T09:16:42.535Z,100233.00
2018-06-19T09:18:46.924Z,100238.00
2018-06-19T09:20:51.173Z,100232.00
2018-06-19T09:22:55.719Z,100229.00
2018-06-19T09:25:00.218Z,100235.00
2018-06-19T09:27:04.609Z,100239.00
2018-06-19T09:29:09.002Z,100238.00
2018-06-19T09:31:13.455Z,100237.00
2018-06-19T09:33:18.211Z,100234.00
2018-06-19T09:35:22.635Z,100235.00
2018-06-19T09:37:27.059Z,100232.00
2018-06-19T09:39:32.099Z,100241.00
2018-06-19T09:41:36.313Z,100235.00
2018-06-19T09:43:40.733Z,100236.00
2018-06-19T09:45:45.910Z,100233.00
2018-06-19T09:47:50.371Z,100240.00
2018-06-19T09:49:55.959Z,100235.00
2018-06-19T09:52:00.475Z,100242.00
2018-06-19T09:54:05.071Z,100236.00
2018-06-19T09:56:09.678Z,100232.00
2018-06-19T09:58:14.099Z,100234.00
2018-06-19T10:00:49.303Z,100231.00
2018-06-19T10:02:53.895Z,100229.00
2018-06-19T10:04:58.640Z,100233.00
2018-06-19T10:07:03.115Z,100237.00
2018-06-19T10:09:09.523Z,100234.00
2018-06-19T10:11:14.074Z,100226.00
2018-06-19T10:15:37.356Z,100228.00
2018-06-19T10:17:41.833Z,100235.00
2018-06-19T10:19:46.326Z,100235.00
2018-06-19T10:21:50.856Z,100240.00
2018-06-19T10:23:56.210Z,100241.00
2018-06-19T10:26:00.650Z,100241.00
2018-06-19T10:28:05.271Z,100246.00
2018-06-19T10:30:09.690Z,100242.00
2018-06-19T10:32:14.230Z,100243.00
2018-06-19T10:34:18.702Z,100248.00
2018-06-19T10:36:23.183Z,100249.00
2018-06-19T10:38:28.000Z,100251.00
2018-06-19T10:40:32.470Z,100253.00
2018-06-19T10:42:37.053Z,100254.00
2018-06-19T10:44:41.659Z,100244.00
2018-06-19T10:46:46.418Z,100246.00
2018-06-19T10:48:50.943Z,100250.00
2018-06-19T10:50:56.519Z,100252.00
2018-06-19T10:53:00.931Z,100249.00
2018-06-19T10:55:06.205Z,100248.00
2018-06-19T10:57:10.731Z,100249.00
2018-06-19T10:59:15.178Z,100254.00
2018-06-19T11:01:19.622Z,100256.00
2018-06-19T11:03:24.649Z,100250.00
2018-06-19T11:05:29.057Z,100259.00
2018-06-19T11:07:33.522Z,100262.00
2018-06-19T11:09:37.650Z,100265.00
2018-06-19T11:11:42.427Z,100257.00
2018-06-19T11:13:47.032Z,100259.00
2018-06-19T11:15:51.455Z,100258.00
2018-06-19T11:17:57.691Z,100255.00
2018-06-19T11:20:02.195Z,100257.00
2018-06-19T11:22:06.963Z,100260.00
2018-06-19T11:24:11.451Z,100252.00
2018-06-19T11:26:18.099Z,100251.00
2018-06-19T11:28:22.613Z,100248.00
2018-06-19T11:30:27.337Z,100251.00
2018-06-19T11:32:31.995Z,100245.00
2018-06-19T11:34:40.885Z,100249.00
2018-06-19T11:36:46.917Z,100245.00
2018-06-19T11:38:53.211Z,100249.00
2018-06-19T11:40:57.851Z,100256.00
2018-06-19T11:43:02.572Z,100248.00
2018-06-19T11:45:07.414Z,100253.00
2018-06-19T11:47:11.880Z,100244.00
2018-06-19T11:49:17.086Z,100247.00
2018-06-19T11:51:21.277Z,100254.00
2018-06-19T11:53:25.897Z,100256.00
2018-06-19T11:55:30.320Z,100255.00
2018-06-19T11:57:34.806Z,100264.00
2018-06-19T11:59:39.487Z,100265.00
2018-06-19T12:01:44.016Z,100257.00
2018-06-19T12:03:49.061Z,100269.00
2018-06-19T12:05:53.440Z,100264.00
2018-06-19T12:07:57.910Z,100263.00
2018-06-19T12:10:02.342Z,100262.00
2018-06-19T12:12:06.785Z,100261.00
2018-06-19T12:14:11.986Z,100256.00
2018-06-19T12:16:17.121Z,100259.00
2018-06-19T12:18:21.582Z,100264.00
2018-06-19T12:20:26.472Z,100265.00
2018-06-19T12:22:31.340Z,100262.00
2018-06-19T12:24:35.757Z,100260.00
2018-06-19T12:26:40.227Z,100256.00
2018-06-19T12:28:45.759Z,100253.00
2018-06-19T12:30:50.330Z,100260.00
2018-06-19T12:32:54.750Z,100259.00
2018-06-19T12:34:59.167Z,100265.00
2018-06-19T12:37:03.667Z,100261.00
2018-06-19T12:39:10.029Z,100260.00
2018-06-19T12:41:14.580Z,100260.00
2018-06-19T12:43:19.066Z,100257.00
2018-06-19T12:45:23.491Z,100260.00
2018-06-19T12:47:28.639Z,100255.00
2018-06-19T12:50:48.010Z,100255.00
2018-06-19T12:53:09.372Z,100258.00
2018-06-19T12:56:24.286Z,100249.00
2018-06-19T12:58:28.767Z,100255.00
2018-06-19T13:00:33.218Z,100253.00
2018-06-19T13:02:37.711Z,100253.00
2018-06-19T13:04:59.338Z,100254.00
2018-06-19T13:07:03.760Z,100258.00
2018-06-19T13:09:09.085Z,100265.00
2018-06-19T13:11:13.532Z,100256.00
2018-06-19T13:13:35.156Z,100263.00
2018-06-19T13:15:39.567Z,100268.00
2018-06-19T13:18:01.087Z,100265.00
2018-06-19T13:20:22.362Z,100272.00
2018-06-19T13:22:26.899Z,100261.00
2018-06-19T13:24:31.314Z,100272.00
2018-06-19T13:26:35.723Z,100267.00
2018-06-19T13:30:05.903Z,100260.00
2018-06-19T13:32:10.358Z,100274.00
2018-06-19T13:34:14.890Z,100259.00
2018-06-19T13:36:19.310Z,100269.00
2018-06-19T13:38:23.796Z,100273.00
2018-06-19T13:41:15.932Z,100263.00
2018-06-19T13:44:37.092Z,100262.00
2018-06-19T13:46:41.961Z,100262.00
2018-06-19T13:48:46.524Z,100265.00
2018-06-19T13:50:51.241Z,100263.00
2018-06-19T13:52:55.925Z,100267.00
2018-06-19T13:57:31.893Z,100265.00
2018-06-19T13:59:36.339Z,100268.00
2018-06-19T14:01:41.121Z,100267.00
2018-06-19T14:03:45.837Z,100277.00
2018-06-19T14:05:50.560Z,100273.00
2018-06-19T14:08:06.761Z,100275.00
2018-06-19T14:10:32.192Z,100274.00
2018-06-19T14:13:03.038Z,100274.00
2018-06-19T14:15:08.035Z,100278.00
2018-06-19T14:17:13.206Z,100278.00
2018-06-19T14:19:17.699Z,100270.00
2018-06-19T14:21:22.544Z,100274.00
2018-06-19T14:23:26.807Z,100270.00
2018-06-19T14:25:32.392Z,100271.00
2018-06-19T14:27:36.873Z,100272.00
2018-06-19T14:29:41.030Z,100275.00
2018-06-19T14:31:45.753Z,100272.00
2018-06-19T14:33:50.305Z,100269.00
2018-06-19T14:35:55.210Z,100269.00
2018-06-19T14:37:59.619Z,100268.00
2018-06-19T14:40:04.559Z,100262.00
2018-06-19T14:42:09.747Z,100266.00
2018-06-19T14:44:14.354Z,100262.00
2018-06-19T14:46:18.769Z,100265.00
2018-06-19T14:48:23.223Z,100260.00
2018-06-19T14:50:27.664Z,100269.00
2018-06-19T14:52:32.051Z,100262.00
2018-06-19T14:54:36.495Z,100261.00
2018-06-19T14:56:40.921Z,100258.00
2018-06-19T14:58:45.460Z,100259.00
2018-06-19T15:00:49.867Z,100262.00
2018-06-19T15:02:55.372Z,100262.00
2018-06-19T15:04:59.894Z,100260.00
2018-06-19T15:07:04.348Z,100259.00
2018-06-19T15:09:11.595Z,100252.00
2018-06-19T15:11:16.058Z,100252.00
2018-06-19T15:13:20.469Z,100255.00
2018-06-19T15:15:25.089Z,100255.00
2018-06-19T15:17:30.330Z,100254.00
2018-06-19T15:19:35.375Z,100249.00
2018-06-19T15:21:40.937Z,100245.00
2018-06-19T15:23:45.366Z,100247.00
2018-06-19T15:25:49.804Z,100243.00
2018-06-19T15:27:54.972Z,100243.00
2018-06-19T15:30:00.440Z,100243.00
2018-06-19T15:32:04.868Z,100252.00
2018-06-19T15:34:10.183Z,100249.00
2018-06-19T15:36:15.097Z,100246.00
2018-06-19T15:38:19.625Z,100243.00
2018-06-19T15:40:24.280Z,100235.00
2018-06-19T15:42:28.986Z,100246.00
2018-06-19T15:44:33.910Z,100237.00
2018-06-19T15:46:38.915Z,100235.00
2018-06-19T15:48:43.981Z,100237.00
2018-06-19T15:50:49.571Z,100234.00
2018-06-19T15:52:54.370Z,100231.00
2018-06-19T15:54:59.074Z,100239.00
2018-06-19T15:57:04.331Z,100231.00
2018-06-19T15:59:08.818Z,100242.00
2018-06-19T16:01:13.336Z,100242.00
2018-06-19T16:03:19.148Z,100235.00
2018-06-19T16:05:23.990Z,100246.00
2018-06-19T16:07:28.577Z,100245.00
2018-06-19T16:09:33.121Z,100242.00
2018-06-19T16:11:40.090Z,100245.00
2018-06-19T16:13:44.924Z,100234.00
2018-06-19T16:15:56.976Z,100239.00
2018-06-19T16:18:01.959Z,100236.00
2018-06-19T16:20:06.447Z,100231.00
2018-06-19T16:22:11.768Z,100235.00
2018-06-19T16:24:17.097Z,100228.00
2018-06-19T16:26:21.843Z,100235.00
2018-06-19T16:28:26.636Z,100238.00
2018-06-19T16:30:31.943Z,100234.00
2018-06-19T16:32:36.388Z,100239.00
2018-06-19T16:34:40.818Z,100240.00
2018-06-19T16:36:45.265Z,100240.00
2018-06-19T16:38:49.740Z,100236.00
2018-06-19T16:40:54.202Z,100242.00
2018-06-19T16:42:59.049Z,100246.00
2018-06-19T16:45:03.567Z,100246.00
2018-06-19T16:47:08.101Z,100244.00
2018-06-19T16:49:12.755Z,100239.00
2018-06-19T16:51:17.294Z,100232.00
2018-06-19T16:53:22.069Z,100235.00
2018-06-19T16:55:26.240Z,100239.00
2018-06-19T16:57:30.710Z,100240.00
2018-06-19T16:59:35.922Z,100241.00
2018-06-19T17:01:40.458Z,100240.00
2018-06-19T17:03:45.139Z,100241.00
2018-06-19T17:05:49.656Z,100241.00
2018-06-19T17:07:54.498Z,100244.00
2018-06-19T17:09:59.139Z,100243.00
2018-06-19T17:12:04.066Z,100239.00
2018-06-19T17:14:08.534Z,100231.00
2018-06-19T17:16:13.091Z,100241.00
2018-06-19T17:18:17.646Z,100231.00
2018-06-19T17:20:23.142Z,100243.00
2018-06-19T17:22:27.646Z,100232.00
2018-06-19T17:24:32.902Z,100234.00
2018-06-19T17:26:37.522Z,100234.00
2018-06-19T17:28:42.329Z,100228.00
2018-06-19T17:30:46.766Z,100228.00
2018-06-19T17:32:51.701Z,100232.00
2018-06-19T17:34:56.898Z,100243.00
2018-06-19T17:37:01.511Z,100243.00
2018-06-19T17:39:10.120Z,100232.00
2018-06-19T17:41:14.836Z,100235.00
2018-06-19T17:43:19.829Z,100229.00
2018-06-19T17:45:24.326Z,100237.00
2018-06-19T17:47:28.803Z,100226.00
2018-06-19T17:49:35.043Z,100231.00
2018-06-19T17:51:39.833Z,100224.00
2018-06-19T17:53:44.293Z,100226.00
2018-06-19T17:55:49.790Z,100229.00
2018-06-19T17:57:54.283Z,100229.00
2018-06-19T17:59:59.883Z,100232.00
2018-06-19T18:02:04.417Z,100227.00
2018-06-19T18:04:08.800Z,100225.00
2018-06-19T18:06:13.464Z,100222.00
2018-06-19T18:08:19.001Z,100227.00
2018-06-19T18:10:24.229Z,100235.00
2018-06-19T18:12:28.664Z,100229.00
2018-06-19T18:14:33.269Z,100234.00
2018-06-19T18:16:37.743Z,100232.00
2018-06-19T18:18:42.510Z,100229.00
2018-06-19T18:20:47.333Z,100230.00
2018-06-19T18:22:51.834Z,100227.00
2018-06-19T18:24:56.787Z,100230.00
2018-06-19T18:27:01.227Z,100231.00
2018-06-19T18:29:05.787Z,100222.00
2018-06-19T18:31:10.237Z,100224.00
2018-06-19T18:33:14.681Z,100226.00
2018-06-19T18:35:20.236Z,100218.00
2018-06-19T18:37:24.742Z,100219.00
2018-06-19T18:39:29.147Z,100216.00
2018-06-19T18:41:33.585Z,100228.00
2018-06-19T18:43:37.990Z,100225.00
2018-06-19T18:45:42.944Z,100225.00
2018-06-19T18:47:47.917Z,100227.00
2018-06-19T18:49:52.427Z,100220.00
2018-06-19T18:51:57.181Z,100225.00
2018-06-19T18:54:01.866Z,100226.00
2018-06-19T18:56:06.690Z,100223.00
2018-06-19T18:58:12.099Z,100235.00
2018-06-19T19:00:16.592Z,100233.00
2018-06-19T19:02:21.060Z,100227.00
2018-06-19T19:04:26.026Z,100229.00
2018-06-19T19:06:30.779Z,100221.00
2018-06-19T19:08:35.477Z,100225.00
2018-06-19T19:10:45.939Z,100224.00
2018-06-19T19:12:50.574Z,100230.00
2018-06-19T19:15:01.933Z,100228.00
2018-06-19T19:17:11.922Z,100234.00
2018-06-19T19:19:18.536Z,100226.00
2018-06-19T19:21:23.550Z,100231.00
2018-06-19T19:23:29.028Z,100230.00
2018-06-19T19:25:33.831Z,100235.00
2018-06-19T19:27:44.097Z,100229.00
2018-06-19T19:29:49.537Z,100232.00
2018-06-19T19:31:54.746Z,100230.00
2018-06-19T19:33:59.392Z,100231.00
2018-06-19T19:36:04.422Z,100226.00
2018-06-19T19:38:14.990Z,100227.00
2018-06-19T19:40:20.286Z,100231.00
2018-06-19T19:42:24.724Z,100224.00
2018-06-19T19:44:29.109Z,100237.00
2018-06-19T19:46:38.868Z,100239.00
2018-06-19T19:48:48.929Z,100239.00
2018-06-19T19:50:54.392Z,100240.00
2018-06-19T19:52:59.799Z,100237.00
2018-06-19T19:55:04.898Z,100238.00
2018-06-19T19:57:15.346Z,100237.00
2018-06-19T19:59:20.907Z,100242.00
2018-06-19T20:01:29.011Z,100244.00
2018-06-19T20:03:33.476Z,100251.00
2018-06-19T20:05:37.922Z,100254.00
2018-06-19T20:07:42.656Z,100259.00
2018-06-19T20:09:47.077Z,100253.00
2018-06-19T20:11:51.847Z,100242.00
2018-06-19T20:13:56.353Z,100244.00
2018-06-19T20:16:01.421Z,100253.00
2018-06-19T20:18:06.466Z,100262.00
2018-06-19T20:20:12.229Z,100265.00
2018-06-19T20:22:17.070Z,100260.00
2018-06-19T20:24:21.750Z,100253.00
2018-06-19T20:26:26.542Z,100251.00
2018-06-19T20:28:31.579Z,100262.00
2018-06-19T20:30:36.372Z,100263.00
2018-06-19T20:32:41.750Z,100265.00
2018-06-19T20:34:46.698Z,100267.00
2018-06-19T20:36:51.339Z,100266.00
2018-06-19T20:38:55.779Z,100274.00
2018-06-19T20:41:01.846Z,100266.00
2018-06-19T20:43:06.313Z,100272.00
2018-06-19T20:45:10.979Z,100274.00
2018-06-19T20:47:15.805Z,100263.00
2018-06-19T20:49:21.312Z,100266.00
2018-06-19T20:51:27.552Z,100266.00
2018-06-19T20:53:32.535Z,100273.00
2018-06-19T20:55:40.372Z,100270.00
2018-06-19T20:57:47.528Z,100273.00
2018-06-19T20:59:55.347Z,100275.00
2018-06-19T21:02:01.163Z,100269.00
2018-06-19T21:04:05.847Z,100273.00
2018-06-19T21:06:10.988Z,100267.00
2018-06-19T21:08:16.451Z,100266.00
2018-06-19T21:10:21.595Z,100265.00
2018-06-19T21:12:26.531Z,100273.00
2018-06-19T21:14:31.131Z,100267.00
2018-06-19T21:16:36.151Z,100267.00
2018-06-19T21:18:42.044Z,100263.00
2018-06-19T21:20:47.411Z,100274.00
2018-06-19T21:22:52.460Z,100267.00
2018-06-19T21:24:57.106Z,100268.00
2018-06-19T21:27:02.282Z,100264.00
2018-06-19T21:29:06.707Z,100265.00
2018-06-19T21:31:11.129Z,100268.00
2018-06-19T21:33:15.600Z,100266.00
2018-06-19T21:35:19.986Z,100265.00
2018-06-19T21:37:29.380Z,100267.00
2018-06-19T21:39:33.772Z,100270.00
2018-06-19T21:41:38.247Z,100267.00
2018-06-19T21:43:42.699Z,100263.00
2018-06-19T21:45:47.110Z,100268.00
2018-06-19T21:47:51.544Z,100266.00
2018-06-19T21:49:55.645Z,100270.00
2018-06-19T21:52:00.041Z,100271.00
2018-06-19T21:54:05.632Z,100267.00
2018-06-19T21:56:10.033Z,100272.00
2018-06-19T21:58:14.453Z,100266.00
2018-06-19T22:00:18.866Z,100265.00
2018-06-19T22:02:28.523Z,100263.00
2018-06-19T22:04:32.814Z,100262.00
2018-06-19T22:06:37.227Z,100260.00
2018-06-19T22:08:52.133Z,100255.00
2018-06-19T22:10:56.572Z,100253.00
2018-06-19T22:13:02.110Z,100255.00
2018-06-19T22:15:06.523Z,100258.00
2018-06-19T22:17:10.890Z,100256.00
2018-06-19T22:19:15.390Z,100253.00
2018-06-19T22:21:19.882Z,100251.00
2018-06-19T22:23:24.367Z,100252.00
2018-06-19T22:25:28.771Z,100255.00
2018-06-19T22:27:33.172Z,100251.00
2018-06-19T22:29:37.815Z,100252.00
2018-06-19T22:31:42.655Z,100252.00
2018-06-19T22:33:49.642Z,100254.00
2018-06-19T22:35:54.250Z,100253.00
2018-06-19T22:38:00.519Z,100251.00
2018-06-19T22:40:06.287Z,100255.00
2018-06-19T22:42:13.425Z,100263.00
2018-06-19T22:44:19.935Z,100249.00
2018-06-19T22:46:24.332Z,100237.00
2018-06-19T22:48:28.464Z,100240.00
2018-06-19T22:50:33.089Z,100253.00
2018-06-19T22:52:37.498Z,100241.00
2018-06-19T22:54:42.675Z,100245.00
2018-06-19T22:56:47.138Z,100245.00
2018-06-19T22:58:51.273Z,100239.00
2018-06-19T23:00:55.658Z,100232.00
2018-06-19T23:03:04.716Z,100243.00
2018-06-19T23:05:09.179Z,100241.00
2018-06-19T23:07:13.567Z,100245.00
2018-06-19T23:09:18.023Z,100236.00
2018-06-19T23:11:22.918Z,100238.00
2018-06-19T23:13:27.353Z,100242.00
2018-06-19T23:15:31.793Z,100241.00
2018-06-19T23:17:36.160Z,100241.00
2018-06-19T23:19:40.567Z,100238.00
2018-06-19T23:21:47.303Z,100245.00
2018-06-19T23:23:57.046Z,100245.00
2018-06-19T23:26:01.429Z,100229.00
2018-06-19T23:28:05.887Z,100242.00
2018-06-19T23:30:10.613Z,100246.00
2018-06-19T23:32:15.040Z,100240.00
2018-06-19T23:34:19.469Z,100236.00
2018-06-19T23:36:23.870Z,100239.00
2018-06-19T23:38:28.343Z,100236.00
2018-06-19T23:40:32.449Z,100238.00
2018-06-19T23:42:36.911Z,100244.00
2018-06-19T23:44:41.330Z,100243.00
2018-06-19T23:46:45.725Z,100244.00
2018-06-19T23:48:50.122Z,100230.00
2018-06-19T23:50:54.534Z,100230.00
2018-06-19T23:52:58.923Z,100231.00
2018-06-19T23:55:03.422Z,100226.00
2018-06-19T23:57:07.825Z,100231.00
2018-06-19T23:59:12.206Z,100227.00
